sensor_id;sensor_type;location;lat;lon;timestamp;pressure;altitude;pressure_sealevel;temperature;humidity
77079;BME280;66004;55.096;38.760;2023-12-20T00:01:15;98501.38;;;6.07;69.39
77079;BME280;66004;55.096;38.760;2023-12-20T00:03:41;98501.38;;;6.07;69.48
77079;BME280;66004;55.096;38.760;2023-12-20T00:06:06;98485.06;;;5.97;69.50
77079;BME280;66004;55.096;38.760;2023-12-20T00:08:32;98489.16;;;5.99;69.61
77079;BME280;66004;55.096;38.760;2023-12-20T00:10:57;98483.56;;;5.99;69.52
77079;BME280;66004;55.096;38.760;2023-12-20T00:13:22;98470.00;;;5.89;69.66
77079;BME280;66004;55.096;38.760;2023-12-20T00:15:48;98475.66;;;6.01;69.50
77079;BME280;66004;55.096;38.760;2023-12-20T00:18:13;98482.03;;;6.02;69.58
77079;BME280;66004;55.096;38.760;2023-12-20T00:20:39;98486.81;;;6.01;69.57
77079;BME280;66004;55.096;38.760;2023-12-20T00:23:04;98481.34;;;6.05;69.33
77079;BME280;66004;55.096;38.760;2023-12-20T00:25:30;98484.94;;;6.06;69.28
77079;BME280;66004;55.096;38.760;2023-12-20T00:27:55;98478.09;;;6.03;69.11
77079;BME280;66004;55.096;38.760;2023-12-20T00:30:21;98490.19;;;6.07;69.22
77079;BME280;66004;55.096;38.760;2023-12-20T00:32:46;98483.69;;;6.03;69.27
77079;BME280;66004;55.096;38.760;2023-12-20T00:35:13;98486.59;;;6.07;69.06
77079;BME280;66004;55.096;38.760;2023-12-20T00:37:39;98460.16;;;5.92;69.26
77079;BME280;66004;55.096;38.760;2023-12-20T00:40:05;98486.69;;;6.10;69.19
77079;BME280;66004;55.096;38.760;2023-12-20T00:42:31;98484.59;;;6.07;69.32
77079;BME280;66004;55.096;38.760;2023-12-20T00:44:56;98493.56;;;6.13;69.11
77079;BME280;66004;55.096;38.760;2023-12-20T00:47:22;98487.19;;;6.12;69.09
77079;BME280;66004;55.096;38.760;2023-12-20T00:49:47;98485.75;;;6.06;68.89
77079;BME280;66004;55.096;38.760;2023-12-20T00:52:13;98497.63;;;6.15;68.79
77079;BME280;66004;55.096;38.760;2023-12-20T00:54:39;98508.81;;;6.15;68.67
77079;BME280;66004;55.096;38.760;2023-12-20T00:57:04;98500.44;;;6.15;68.65
77079;BME280;66004;55.096;38.760;2023-12-20T00:59:30;98494.38;;;6.13;68.60
77079;BME280;66004;55.096;38.760;2023-12-20T01:01:55;98496.81;;;6.15;68.67
77079;BME280;66004;55.096;38.760;2023-12-20T01:04:21;98494.38;;;6.13;68.56
77079;BME280;66004;55.096;38.760;2023-12-20T01:06:46;98504.41;;;6.14;68.44
77079;BME280;66004;55.096;38.760;2023-12-20T01:09:12;98494.13;;;6.06;68.21
77079;BME280;66004;55.096;38.760;2023-12-20T01:11:37;98502.97;;;6.08;68.08
77079;BME280;66004;55.096;38.760;2023-12-20T01:14:03;98494.59;;;5.96;68.38
77079;BME280;66004;55.096;38.760;2023-12-20T01:16:28;98485.28;;;6.04;68.31
77079;BME280;66004;55.096;38.760;2023-12-20T01:18:54;98496.47;;;6.04;68.39
77079;BME280;66004;55.096;38.760;2023-12-20T01:21:19;98476.19;;;5.95;68.41
77079;BME280;66004;55.096;38.760;2023-12-20T01:23:44;98491.81;;;6.08;68.18
77079;BME280;66004;55.096;38.760;2023-12-20T01:26:10;98482.03;;;6.02;68.24
77079;BME280;66004;55.096;38.760;2023-12-20T01:28:35;98486.22;;;6.08;68.14
77079;BME280;66004;55.096;38.760;2023-12-20T01:31:01;98489.00;;;6.08;68.13
77079;BME280;66004;55.096;38.760;2023-12-20T01:33:26;98487.41;;;6.07;68.11
77079;BME280;66004;55.096;38.760;2023-12-20T01:35:52;98480.63;;;6.08;68.21
77079;BME280;66004;55.096;38.760;2023-12-20T01:38:17;98472.50;;;6.15;68.28
77079;BME280;66004;55.096;38.760;2023-12-20T01:40:45;98479.47;;;6.21;68.23
77079;BME280;66004;55.096;38.760;2023-12-20T01:43:11;98473.66;;;6.27;68.10
77079;BME280;66004;55.096;38.760;2023-12-20T01:45:39;98468.69;;;6.20;68.00
77079;BME280;66004;55.096;38.760;2023-12-20T01:48:05;98459.94;;;6.21;67.96
77079;BME280;66004;55.096;38.760;2023-12-20T01:50:32;98458.09;;;6.26;67.72
77079;BME280;66004;55.096;38.760;2023-12-20T01:53:01;98451.31;;;6.27;68.09
77079;BME280;66004;55.096;38.760;2023-12-20T01:55:28;98455.28;;;6.26;68.21
77079;BME280;66004;55.096;38.760;2023-12-20T01:57:55;98457.38;;;6.29;68.09
77079;BME280;66004;55.096;38.760;2023-12-20T02:00:22;98436.44;;;6.22;68.04
77079;BME280;66004;55.096;38.760;2023-12-20T02:02:50;98446.09;;;6.25;68.13
77079;BME280;66004;55.096;38.760;2023-12-20T02:05:16;98434.78;;;6.21;67.85
77079;BME280;66004;55.096;38.760;2023-12-20T02:07:42;98436.09;;;6.24;67.80
77079;BME280;66004;55.096;38.760;2023-12-20T02:10:08;98443.97;;;6.34;67.88
77079;BME280;66004;55.096;38.760;2023-12-20T02:12:33;98438.38;;;6.34;67.83
77079;BME280;66004;55.096;38.760;2023-12-20T02:14:59;98424.78;;;6.33;67.92
77079;BME280;66004;55.096;38.760;2023-12-20T02:17:24;98430.34;;;6.33;67.63
77079;BME280;66004;55.096;38.760;2023-12-20T02:19:50;98431.06;;;6.30;67.77
77079;BME280;66004;55.096;38.760;2023-12-20T02:22:16;98444.69;;;6.31;67.81
77079;BME280;66004;55.096;38.760;2023-12-20T02:24:41;98443.41;;;6.29;67.74
77079;BME280;66004;55.096;38.760;2023-12-20T02:27:07;98446.19;;;6.29;67.86
77079;BME280;66004;55.096;38.760;2023-12-20T02:29:34;98458.53;;;6.28;67.55
77079;BME280;66004;55.096;38.760;2023-12-20T02:32:00;98457.38;;;6.29;67.70
77079;BME280;66004;55.096;38.760;2023-12-20T02:34:25;98466.59;;;6.29;67.57
77079;BME280;66004;55.096;38.760;2023-12-20T02:36:51;98450.06;;;6.24;67.61
77079;BME280;66004;55.096;38.760;2023-12-20T02:39:16;98455.03;;;6.31;67.40
77079;BME280;66004;55.096;38.760;2023-12-20T02:41:42;98451.78;;;6.29;67.32
77079;BME280;66004;55.096;38.760;2023-12-20T02:44:07;98450.16;;;6.28;67.42
77079;BME280;66004;55.096;38.760;2023-12-20T02:46:33;98429.69;;;6.11;67.15
77079;BME280;66004;55.096;38.760;2023-12-20T02:49:17;98448.41;;;6.23;67.29
77079;BME280;66004;55.096;38.760;2023-12-20T02:51:42;98457.38;;;6.29;67.26
77079;BME280;66004;55.096;38.760;2023-12-20T02:54:08;98445.16;;;6.21;67.31
77079;BME280;66004;55.096;38.760;2023-12-20T02:56:33;98441.78;;;6.15;67.31
77079;BME280;66004;55.096;38.760;2023-12-20T02:58:59;98427.59;;;6.20;67.42
77079;BME280;66004;55.096;38.760;2023-12-20T03:01:24;98431.78;;;6.27;67.54
77079;BME280;66004;55.096;38.760;2023-12-20T03:03:50;98432.50;;;6.23;67.23
77079;BME280;66004;55.096;38.760;2023-12-20T03:06:18;98426.91;;;6.23;67.45
77079;BME280;66004;55.096;38.760;2023-12-20T03:08:44;98429.22;;;6.21;67.48
77079;BME280;66004;55.096;38.760;2023-12-20T03:11:09;98436.44;;;6.22;67.46
77079;BME280;66004;55.096;38.760;2023-12-20T03:13:35;98443.66;;;6.23;67.25
77079;BME280;66004;55.096;38.760;2023-12-20T03:16:00;98427.38;;;6.13;66.92
77079;BME280;66004;55.096;38.760;2023-12-20T03:18:26;98446.81;;;6.22;67.07
77079;BME280;66004;55.096;38.760;2023-12-20T03:20:53;98425.84;;;6.16;66.97
77079;BME280;66004;55.096;38.760;2023-12-20T03:23:18;98436.66;;;6.30;66.87
77079;BME280;66004;55.096;38.760;2023-12-20T03:25:44;98434.59;;;6.14;66.86
77079;BME280;66004;55.096;38.760;2023-12-20T03:28:09;98453.41;;;6.30;66.89
77079;BME280;66004;55.096;38.760;2023-12-20T03:30:35;98454.09;;;6.27;66.88
77079;BME280;66004;55.096;38.760;2023-12-20T03:33:00;98449.34;;;6.27;66.82
77079;BME280;66004;55.096;38.760;2023-12-20T03:35:25;98452.50;;;6.26;66.93
77079;BME280;66004;55.096;38.760;2023-12-20T03:37:51;98452.50;;;6.26;66.88
77079;BME280;66004;55.096;38.760;2023-12-20T03:40:16;98432.94;;;6.13;66.77
77079;BME280;66004;55.096;38.760;2023-12-20T03:42:42;98455.63;;;6.24;66.75
77079;BME280;66004;55.096;38.760;2023-12-20T03:45:08;98449.81;;;6.17;66.94
77079;BME280;66004;55.096;38.760;2023-12-20T03:47:33;98464.13;;;6.15;66.88
77079;BME280;66004;55.096;38.760;2023-12-20T03:49:59;98478.78;;;6.24;66.77
77079;BME280;66004;55.096;38.760;2023-12-20T03:52:24;98448.28;;;5.95;66.92
77079;BME280;66004;55.096;38.760;2023-12-20T03:54:50;98475.28;;;6.15;66.86
77079;BME280;66004;55.096;38.760;2023-12-20T03:57:15;98468.78;;;6.11;66.93
77079;BME280;66004;55.096;38.760;2023-12-20T03:59:41;98487.84;;;6.21;66.93
77079;BME280;66004;55.096;38.760;2023-12-20T04:02:06;98484.84;;;6.14;67.14
77079;BME280;66004;55.096;38.760;2023-12-20T04:04:32;98496.22;;;6.21;67.24
77079;BME280;66004;55.096;38.760;2023-12-20T04:06:57;98485.06;;;6.21;67.13
77079;BME280;66004;55.096;38.760;2023-12-20T04:09:23;98481.13;;;6.22;67.45
77079;BME280;66004;55.096;38.760;2023-12-20T04:11:48;98472.28;;;6.20;67.25
77079;BME280;66004;55.096;38.760;2023-12-20T04:14:13;98473.88;;;6.21;67.41
77079;BME280;66004;55.096;38.760;2023-12-20T04:16:39;98463.31;;;6.15;67.25
77079;BME280;66004;55.096;38.760;2023-12-20T04:19:05;98467.38;;;6.17;67.36
77079;BME280;66004;55.096;38.760;2023-12-20T04:21:30;98454.13;;;6.14;67.36
77079;BME280;66004;55.096;38.760;2023-12-20T04:23:56;98456.47;;;6.12;67.56
77079;BME280;66004;55.096;38.760;2023-12-20T04:26:21;98455.06;;;6.06;67.51
77079;BME280;66004;55.096;38.760;2023-12-20T04:28:47;98467.13;;;6.10;67.67
77079;BME280;66004;55.096;38.760;2023-12-20T04:31:12;98497.84;;;6.10;67.65
77079;BME280;66004;55.096;38.760;2023-12-20T04:33:38;98492.75;;;6.12;67.66
77079;BME280;66004;55.096;38.760;2023-12-20T04:36:03;98465.28;;;6.02;67.46
77079;BME280;66004;55.096;38.760;2023-12-20T04:38:29;98482.53;;;6.16;67.62
77079;BME280;66004;55.096;38.760;2023-12-20T04:40:55;98476.00;;;6.12;67.72
77079;BME280;66004;55.096;38.760;2023-12-20T04:43:20;98483.44;;;6.20;67.84
77079;BME280;66004;55.096;38.760;2023-12-20T04:45:46;98483.44;;;6.20;67.58
77079;BME280;66004;55.096;38.760;2023-12-20T04:48:12;98481.81;;;6.19;67.64
77079;BME280;66004;55.096;38.760;2023-12-20T04:50:37;98471.13;;;6.09;67.65
77079;BME280;66004;55.096;38.760;2023-12-20T04:53:03;98485.06;;;6.21;67.69
77079;BME280;66004;55.096;38.760;2023-12-20T04:55:28;98475.06;;;6.08;67.79
77079;BME280;66004;55.096;38.760;2023-12-20T04:57:54;98476.81;;;6.13;67.69
77079;BME280;66004;55.096;38.760;2023-12-20T05:00:20;98495.75;;;6.19;67.80
77079;BME280;66004;55.096;38.760;2023-12-20T05:02:45;98500.88;;;6.17;67.79
77079;BME280;66004;55.096;38.760;2023-12-20T05:05:11;98485.53;;;6.11;67.84
77079;BME280;66004;55.096;38.760;2023-12-20T05:07:36;98498.81;;;6.14;68.02
77079;BME280;66004;55.096;38.760;2023-12-20T05:10:03;98481.13;;;5.98;68.04
77079;BME280;66004;55.096;38.760;2023-12-20T05:12:30;98489.47;;;6.10;68.15
77079;BME280;66004;55.096;38.760;2023-12-20T05:14:56;98502.75;;;6.13;68.12
77079;BME280;66004;55.096;38.760;2023-12-20T05:17:21;98503.69;;;6.17;68.18
77079;BME280;66004;55.096;38.760;2023-12-20T05:19:46;98503.09;;;6.12;68.12
77079;BME280;66004;55.096;38.760;2023-12-20T05:22:12;98510.44;;;6.16;68.16
77079;BME280;66004;55.096;38.760;2023-12-20T05:24:37;98492.41;;;6.01;67.97
77079;BME280;66004;55.096;38.760;2023-12-20T05:27:03;98516.03;;;6.16;68.04
77079;BME280;66004;55.096;38.760;2023-12-20T05:29:32;98508.34;;;6.13;68.09
77079;BME280;66004;55.096;38.760;2023-12-20T05:31:58;98511.81;;;6.10;68.01
77079;BME280;66004;55.096;38.760;2023-12-20T05:34:23;98524.88;;;6.18;67.90
77079;BME280;66004;55.096;38.760;2023-12-20T05:36:49;98518.47;;;6.18;67.94
77079;BME280;66004;55.096;38.760;2023-12-20T05:39:14;98516.97;;;6.20;67.93
77079;BME280;66004;55.096;38.760;2023-12-20T05:41:40;98508.91;;;6.19;67.73
77079;BME280;66004;55.096;38.760;2023-12-20T05:44:05;98508.22;;;6.22;67.89
77079;BME280;66004;55.096;38.760;2023-12-20T05:46:31;98501.59;;;6.14;67.55
77079;BME280;66004;55.096;38.760;2023-12-20T05:48:56;98516.97;;;6.20;67.67
77079;BME280;66004;55.096;38.760;2023-12-20T05:51:22;98516.97;;;6.20;67.81
77079;BME280;66004;55.096;38.760;2023-12-20T05:53:47;98530.69;;;6.26;67.82
77079;BME280;66004;55.096;38.760;2023-12-20T05:56:15;98540.22;;;6.24;67.75
77079;BME280;66004;55.096;38.760;2023-12-20T05:58:40;98530.69;;;6.26;67.75
77079;BME280;66004;55.096;38.760;2023-12-20T06:01:06;98525.34;;;6.20;67.63
77079;BME280;66004;55.096;38.760;2023-12-20T06:03:33;98528.13;;;6.20;67.56
77079;BME280;66004;55.096;38.760;2023-12-20T06:05:59;98533.50;;;6.26;67.67
77079;BME280;66004;55.096;38.760;2023-12-20T06:08:26;98525.91;;;6.26;67.70
77079;BME280;66004;55.096;38.760;2023-12-20T06:10:51;98532.78;;;6.29;67.63
77079;BME280;66004;55.096;38.760;2023-12-20T06:13:16;98516.97;;;6.20;67.46
77079;BME280;66004;55.096;38.760;2023-12-20T06:15:42;98526.84;;;6.30;67.45
77079;BME280;66004;55.096;38.760;2023-12-20T06:18:07;98517.66;;;6.30;67.42
77079;BME280;66004;55.096;38.760;2023-12-20T06:20:33;98519.38;;;6.34;67.33
77079;BME280;66004;55.096;38.760;2023-12-20T06:22:59;98512.31;;;6.24;67.21
77079;BME280;66004;55.096;38.760;2023-12-20T06:25:25;98517.19;;;6.28;67.32
77079;BME280;66004;55.096;38.760;2023-12-20T06:27:50;98531.88;;;6.37;67.48
77079;BME280;66004;55.096;38.760;2023-12-20T06:30:16;98523.47;;;6.24;67.40
77079;BME280;66004;55.096;38.760;2023-12-20T06:32:41;98536.88;;;6.31;67.24
77079;BME280;66004;55.096;38.760;2023-12-20T06:35:08;98535.56;;;6.29;67.37
77079;BME280;66004;55.096;38.760;2023-12-20T06:37:34;98533.03;;;6.23;67.29
77079;BME280;66004;55.096;38.760;2023-12-20T06:40:00;98528.94;;;6.21;67.19
77079;BME280;66004;55.096;38.760;2023-12-20T06:42:26;98529.28;;;6.32;67.22
77079;BME280;66004;55.096;38.760;2023-12-20T06:44:52;98539.78;;;6.35;67.22
77079;BME280;66004;55.096;38.760;2023-12-20T06:47:17;98543.03;;;6.37;67.07
77079;BME280;66004;55.096;38.760;2023-12-20T06:49:43;98538.72;;;6.39;67.16
77079;BME280;66004;55.096;38.760;2023-12-20T06:52:08;98537.91;;;6.39;67.13
77079;BME280;66004;55.096;38.760;2023-12-20T06:54:34;98535.81;;;6.36;67.21
77079;BME280;66004;55.096;38.760;2023-12-20T06:57:00;98543.59;;;6.30;67.20
77079;BME280;66004;55.096;38.760;2023-12-20T06:59:25;98538.81;;;6.31;67.34
77079;BME280;66004;55.096;38.760;2023-12-20T07:01:51;98539.06;;;6.26;67.28
77079;BME280;66004;55.096;38.760;2023-12-20T07:04:17;98549.31;;;6.34;67.22
77079;BME280;66004;55.096;38.760;2023-12-20T07:06:46;98539.19;;;6.29;67.43
77079;BME280;66004;55.096;38.760;2023-12-20T07:09:11;98553.25;;;6.33;67.13
77079;BME280;66004;55.096;38.760;2023-12-20T07:11:38;98548.81;;;6.19;67.37
77079;BME280;66004;55.096;38.760;2023-12-20T07:14:04;98567.72;;;6.35;67.33
77079;BME280;66004;55.096;38.760;2023-12-20T07:16:29;98560.47;;;6.34;67.16
77079;BME280;66004;55.096;38.760;2023-12-20T07:18:54;98557.22;;;6.32;67.04
77079;BME280;66004;55.096;38.760;2023-12-20T07:21:21;98573.88;;;6.40;67.08
77079;BME280;66004;55.096;38.760;2023-12-20T07:23:47;98573.03;;;6.40;66.99
77079;BME280;66004;55.096;38.760;2023-12-20T07:26:12;98570.13;;;6.36;66.97
77079;BME280;66004;55.096;38.760;2023-12-20T07:28:38;98557.91;;;6.29;67.13
77079;BME280;66004;55.096;38.760;2023-12-20T07:31:03;98574.44;;;6.34;67.07
77079;BME280;66004;55.096;38.760;2023-12-20T07:33:28;98575.72;;;6.36;67.11
77079;BME280;66004;55.096;38.760;2023-12-20T07:35:54;98572.25;;;6.39;66.99
77079;BME280;66004;55.096;38.760;2023-12-20T07:38:19;98561.41;;;6.38;66.95
77079;BME280;66004;55.096;38.760;2023-12-20T07:40:45;98564.78;;;6.43;66.71
77079;BME280;66004;55.096;38.760;2023-12-20T07:43:10;98574.00;;;6.56;66.53
77079;BME280;66004;55.096;38.760;2023-12-20T07:45:35;98574.00;;;6.56;66.49
77079;BME280;66004;55.096;38.760;2023-12-20T07:48:01;98571.66;;;6.58;66.28
77079;BME280;66004;55.096;38.760;2023-12-20T07:50:26;98574.09;;;6.60;66.32
77079;BME280;66004;55.096;38.760;2023-12-20T07:52:52;98583.75;;;6.62;66.16
77079;BME280;66004;55.096;38.760;2023-12-20T07:55:18;98562.81;;;6.56;66.15
77079;BME280;66004;55.096;38.760;2023-12-20T07:57:43;98582.47;;;6.72;66.39
77079;BME280;66004;55.096;38.760;2023-12-20T08:00:10;98556.03;;;6.70;66.10
77079;BME280;66004;55.096;38.760;2023-12-20T08:02:35;98565.81;;;6.88;65.97
77079;BME280;66004;55.096;38.760;2023-12-20T08:05:00;98565.59;;;6.93;65.83
77079;BME280;66004;55.096;38.760;2023-12-20T08:07:26;98565.69;;;6.97;65.75
77079;BME280;66004;55.096;38.760;2023-12-20T08:09:52;98564.16;;;6.99;65.63
77079;BME280;66004;55.096;38.760;2023-12-20T08:12:18;98568.34;;;7.06;65.41
77079;BME280;66004;55.096;38.760;2023-12-20T08:14:43;98543.66;;;6.95;65.51
77079;BME280;66004;55.096;38.760;2023-12-20T08:17:09;98556.94;;;6.98;65.36
77079;BME280;66004;55.096;38.760;2023-12-20T08:19:34;98560.41;;;7.08;65.20
77079;BME280;66004;55.096;38.760;2023-12-20T08:21:59;98562.06;;;7.09;65.25
77079;BME280;66004;55.096;38.760;2023-12-20T08:24:25;98548.97;;;7.13;65.19
77079;BME280;66004;55.096;38.760;2023-12-20T08:26:50;98553.59;;;7.21;65.09
77079;BME280;66004;55.096;38.760;2023-12-20T08:29:16;98535.09;;;7.16;64.84
77079;BME280;66004;55.096;38.760;2023-12-20T08:31:41;98544.97;;;7.26;64.77
77079;BME280;66004;55.096;38.760;2023-12-20T08:34:07;98531.75;;;7.11;64.49
77079;BME280;66004;55.096;38.760;2023-12-20T08:36:34;98550.13;;;7.24;64.67
77079;BME280;66004;55.096;38.760;2023-12-20T08:39:00;98541.97;;;7.19;64.51
77079;BME280;66004;55.096;38.760;2023-12-20T08:41:25;98541.72;;;7.24;64.41
77079;BME280;66004;55.096;38.760;2023-12-20T08:43:51;98540.06;;;7.23;64.56
77079;BME280;66004;55.096;38.760;2023-12-20T08:46:19;98537.84;;;7.29;64.38
77079;BME280;66004;55.096;38.760;2023-12-20T08:48:44;98538.69;;;7.29;64.39
77079;BME280;66004;55.096;38.760;2023-12-20T08:51:10;98528.88;;;7.23;64.33
77079;BME280;66004;55.096;38.760;2023-12-20T08:53:35;98542.75;;;7.32;64.16
77079;BME280;66004;55.096;38.760;2023-12-20T08:56:01;98540.06;;;7.23;64.26
77079;BME280;66004;55.096;38.760;2023-12-20T08:58:27;98545.66;;;7.23;64.16
77079;BME280;66004;55.096;38.760;2023-12-20T09:00:52;98539.06;;;7.15;64.07
77079;BME280;66004;55.096;38.760;2023-12-20T09:03:18;98535.91;;;7.17;64.29
77079;BME280;66004;55.096;38.760;2023-12-20T09:05:43;98553.38;;;7.14;64.06
77079;BME280;66004;55.096;38.760;2023-12-20T09:08:09;98547.00;;;7.13;64.15
77079;BME280;66004;55.096;38.760;2023-12-20T09:10:36;98542.19;;;7.14;64.17
77079;BME280;66004;55.096;38.760;2023-12-20T09:13:02;98534.31;;;7.16;64.11
77079;BME280;66004;55.096;38.760;2023-12-20T09:15:29;98536.81;;;7.21;63.97
77079;BME280;66004;55.096;38.760;2023-12-20T09:17:55;98539.38;;;7.26;63.71
77079;BME280;66004;55.096;38.760;2023-12-20T09:20:21;98546.34;;;7.32;63.74
77079;BME280;66004;55.096;38.760;2023-12-20T09:22:48;98520.66;;;7.14;63.72
77079;BME280;66004;55.096;38.760;2023-12-20T09:25:14;98548.69;;;7.30;63.78
77079;BME280;66004;55.096;38.760;2023-12-20T09:27:41;98537.75;;;7.25;63.52
77079;BME280;66004;55.096;38.760;2023-12-20T09:30:07;98548.44;;;7.35;63.38
77079;BME280;66004;55.096;38.760;2023-12-20T09:32:32;98550.56;;;7.26;63.62
77079;BME280;66004;55.096;38.760;2023-12-20T09:34:58;98548.94;;;7.25;63.42
77079;BME280;66004;55.096;38.760;2023-12-20T09:37:26;98542.41;;;7.21;63.63
77079;BME280;66004;55.096;38.760;2023-12-20T09:39:52;98547.31;;;7.24;63.66
77079;BME280;66004;55.096;38.760;2023-12-20T09:42:19;98553.81;;;7.28;63.57
77079;BME280;66004;55.096;38.760;2023-12-20T09:44:47;98536.81;;;7.21;63.52
77079;BME280;66004;55.096;38.760;2023-12-20T09:47:12;98553.13;;;7.31;63.53
77079;BME280;66004;55.096;38.760;2023-12-20T09:49:39;98554.72;;;7.32;63.38
77079;BME280;66004;55.096;38.760;2023-12-20T09:52:07;98548.00;;;7.33;63.33
77079;BME280;66004;55.096;38.760;2023-12-20T09:54:33;98547.19;;;7.33;63.40
77079;BME280;66004;55.096;38.760;2023-12-20T09:56:59;98552.97;;;7.40;63.30
77079;BME280;66004;55.096;38.760;2023-12-20T09:59:24;98525.63;;;7.21;63.24
77079;BME280;66004;55.096;38.760;2023-12-20T10:01:50;98550.53;;;7.38;63.24
77079;BME280;66004;55.096;38.760;2023-12-20T10:04:16;98513.44;;;7.13;63.25
77079;BME280;66004;55.096;38.760;2023-12-20T10:06:42;98552.41;;;7.34;63.30
77079;BME280;66004;55.096;38.760;2023-12-20T10:09:09;98538.00;;;7.20;63.01
77079;BME280;66004;55.096;38.760;2023-12-20T10:11:38;98548.00;;;7.21;63.28
77079;BME280;66004;55.096;38.760;2023-12-20T10:14:05;98553.59;;;7.21;63.36
77079;BME280;66004;55.096;38.760;2023-12-20T10:16:31;98550.91;;;7.25;63.48
77079;BME280;66004;55.096;38.760;2023-12-20T10:18:58;98539.50;;;7.17;63.37
77079;BME280;66004;55.096;38.760;2023-12-20T10:21:24;98552.56;;;7.26;63.58
77079;BME280;66004;55.096;38.760;2023-12-20T10:23:52;98538.34;;;7.18;63.38
77079;BME280;66004;55.096;38.760;2023-12-20T10:26:24;98547.31;;;7.24;63.25
77079;BME280;66004;55.096;38.760;2023-12-20T10:28:59;98550.81;;;7.21;63.42
77079;BME280;66004;55.096;38.760;2023-12-20T10:31:34;98544.53;;;7.24;63.42
77079;BME280;66004;55.096;38.760;2023-12-20T10:34:01;98546.41;;;7.20;63.44
77079;BME280;66004;55.096;38.760;2023-12-20T10:36:31;98546.75;;;7.18;63.34
77079;BME280;66004;55.096;38.760;2023-12-20T10:38:58;98547.09;;;7.17;63.27
77079;BME280;66004;55.096;38.760;2023-12-20T10:41:29;98551.88;;;7.16;63.33
77079;BME280;66004;55.096;38.760;2023-12-20T10:43:59;98553.88;;;7.16;63.24
77079;BME280;66004;55.096;38.760;2023-12-20T10:46:29;98539.69;;;7.09;63.33
77079;BME280;66004;55.096;38.760;2023-12-20T10:48:56;98549.91;;;7.17;63.27
77079;BME280;66004;55.096;38.760;2023-12-20T10:51:22;98549.44;;;7.15;63.46
77079;BME280;66004;55.096;38.760;2023-12-20T10:53:50;98542.81;;;7.07;63.27
77079;BME280;66004;55.096;38.760;2023-12-20T10:56:17;98554.81;;;7.08;63.42
77079;BME280;66004;55.096;38.760;2023-12-20T10:58:43;98557.59;;;7.08;63.47
77079;BME280;66004;55.096;38.760;2023-12-20T11:01:12;98550.41;;;7.07;63.41
77079;BME280;66004;55.096;38.760;2023-12-20T11:03:43;98549.22;;;7.08;63.35
77079;BME280;66004;55.096;38.760;2023-12-20T11:09:17;98556.44;;;7.09;63.50
77079;BME280;66004;55.096;38.760;2023-12-20T11:12:06;98552.47;;;7.10;63.50
77079;BME280;66004;55.096;38.760;2023-12-20T11:17:11;98552.97;;;6.99;63.30
77079;BME280;66004;55.096;38.760;2023-12-20T11:22:27;98555.31;;;6.97;63.56
77079;BME280;66004;55.096;38.760;2023-12-20T11:24:58;98555.78;;;6.99;63.69
77079;BME280;66004;55.096;38.760;2023-12-20T11:27:24;98548.06;;;6.96;63.80
77079;BME280;66004;55.096;38.760;2023-12-20T11:29:53;98550.41;;;6.94;63.59
77079;BME280;66004;55.096;38.760;2023-12-20T11:34:58;98538.81;;;6.80;63.58
77079;BME280;66004;55.096;38.760;2023-12-20T11:37:31;98551.59;;;6.81;63.68
77079;BME280;66004;55.096;38.760;2023-12-20T11:40:02;98539.28;;;6.70;63.59
77079;BME280;66004;55.096;38.760;2023-12-20T11:42:33;98556.97;;;6.74;63.67
77079;BME280;66004;55.096;38.760;2023-12-20T11:45:05;98535.91;;;6.64;63.71
77079;BME280;66004;55.096;38.760;2023-12-20T11:47:33;98556.97;;;6.74;63.90
77079;BME280;66004;55.096;38.760;2023-12-20T11:50:00;98551.16;;;6.67;63.99
77079;BME280;66004;55.096;38.760;2023-12-20T11:52:30;98560.03;;;6.69;63.90
77079;BME280;66004;55.096;38.760;2023-12-20T11:54:56;98565.63;;;6.69;63.97
77079;BME280;66004;55.096;38.760;2023-12-20T11:57:22;98559.78;;;6.61;64.01
77079;BME280;66004;55.096;38.760;2023-12-20T11:59:47;98571.09;;;6.65;64.01
77079;BME280;66004;55.096;38.760;2023-12-20T12:02:19;98564.66;;;6.65;64.10
77079;BME280;66004;55.096;38.760;2023-12-20T12:04:44;98566.53;;;6.60;64.05
77079;BME280;66004;55.096;38.760;2023-12-20T12:07:10;98572.59;;;6.62;64.07
77079;BME280;66004;55.096;38.760;2023-12-20T12:09:36;98577.25;;;6.58;64.19
77079;BME280;66004;55.096;38.760;2023-12-20T12:12:01;98574.91;;;6.60;64.09
77079;BME280;66004;55.096;38.760;2023-12-20T12:14:30;98565.94;;;6.55;64.01
77079;BME280;66004;55.096;38.760;2023-12-20T12:16:56;98569.09;;;6.53;64.15
77079;BME280;66004;55.096;38.760;2023-12-20T12:19:25;98566.75;;;6.55;64.13
77079;BME280;66004;55.096;38.760;2023-12-20T12:22:13;98560.97;;;6.48;64.24
77079;BME280;66004;55.096;38.760;2023-12-20T12:24:45;98575.75;;;6.49;64.23
77079;BME280;66004;55.096;38.760;2023-12-20T12:27:17;98576.19;;;6.51;64.31
77079;BME280;66004;55.096;38.760;2023-12-20T12:30:03;98564.44;;;6.45;64.42
77079;BME280;66004;55.096;38.760;2023-12-20T12:32:29;98568.88;;;6.46;64.40
77079;BME280;66004;55.096;38.760;2023-12-20T12:34:55;98585.84;;;6.53;64.46
77079;BME280;66004;55.096;38.760;2023-12-20T12:37:22;98581.66;;;6.47;64.23
77079;BME280;66004;55.096;38.760;2023-12-20T12:39:49;98589.81;;;6.52;64.32
77079;BME280;66004;55.096;38.760;2023-12-20T12:42:14;98588.19;;;6.51;64.30
77079;BME280;66004;55.096;38.760;2023-12-20T12:44:40;98577.47;;;6.41;64.33
77079;BME280;66004;55.096;38.760;2023-12-20T12:47:05;98595.16;;;6.45;64.34
77079;BME280;66004;55.096;38.760;2023-12-20T12:49:32;98590.06;;;6.35;64.41
77079;BME280;66004;55.096;38.760;2023-12-20T12:51:57;98588.50;;;6.25;64.52
77079;BME280;66004;55.096;38.760;2023-12-20T12:54:24;98597.13;;;6.32;64.65
77079;BME280;66004;55.096;38.760;2023-12-20T12:56:49;98601.22;;;6.35;64.90
77079;BME280;66004;55.096;38.760;2023-12-20T12:59:16;98590.75;;;6.32;64.68
77079;BME280;66004;55.096;38.760;2023-12-20T13:01:41;98592.34;;;6.33;64.85
77079;BME280;66004;55.096;38.760;2023-12-20T13:04:07;98592.34;;;6.33;64.74
77079;BME280;66004;55.096;38.760;2023-12-20T13:06:37;98592.34;;;6.33;64.86